Latest Coastal Weather Observations for Port Macquarie Airport

IDN60701

Issued at 3:12 am EST Wednesday 31 August 2016 (issued every 10 minutes, with the page automatically refreshed every 10 minutes)

About coastal observations | Map of coastal stations | Coastal observations for NSW | Marine services | Other Formats
Station Details ID: 060139 Name: PORT MACQUARIE AIRPORT AWS Lat: -31.43 Lon: 152.87 Height: 4.2 m
Data from the previous 72 hours. | See also: Recent months at Port Macquarie Airport
Date/Time
EST
Temp
°C
Wind Pressure Rain since
9am
mm
Weather Cloud Vis
km
Sea
Height
m
Swell
Dir  Spd
kts
Gust
kts
hPa Trend Height
m
Period
s
Dir
31/03:00am 14.0 N 5 6 1022.2 - 0.0 - Mostly cloudy 10 - - - -
31/02:30am 15.0 NNE 5 7 1022.6 - 0.0 - - 10 - - - -
31/02:00am 14.5 N 4 6 1023.3 - 0.0 - - 10 - - - -
31/01:30am 15.3 NNE 7 8 1023.6 - 0.0 - - 10 - - - -
31/01:00am 16.2 N 8 10 1023.8 - 0.0 - - 10 - - - -
31/12:30am 16.9 N 11 15 1023.9 - 0.0 - - 10 - - - -
31/12:00am 17.0 N 11 15 1024.1 - 0.0 - Mostly clear 10 - - - -
 
Date/Time
EST
Temp
°C
Wind Pressure Rain since
9am
mm
Weather Cloud Vis
km
Sea
Height
m
Swell
Dir  Spd
kts
Gust
kts
hPa Trend Height
m
Period
s
Dir
30/11:30pm 17.5 NNE 12 19 1023.9 - 0.0 - - 10 - - - -
30/11:00pm 17.4 NNE 11 16 1024.2 - 0.0 - - 10 - - - -
30/10:30pm 17.2 N 9 13 1024.4 - 0.0 - - 10 - - - -
30/10:00pm 17.4 N 9 14 1024.7 - 0.0 - - 10 - - - -
30/09:30pm 17.5 NNE 9 11 1024.7 - 0.0 - - 10 - - - -
30/09:00pm 17.7 NNE 8 12 1025.2 - 0.0 - Mostly clear 10 - - - -
30/08:30pm 17.8 N 8 11 1025.2 - 0.0 - - 10 - - - -
30/08:00pm 18.0 N 9 13 1025.0 - 0.0 - - 10 - - - -
30/07:30pm 18.0 NNE 8 12 1025.0 - 0.0 - - 10 - - - -
30/07:00pm 18.0 NNE 8 10 1025.0 - 0.0 - - 10 - - - -
30/06:30pm 17.9 NNE 8 11 1025.0 - 0.0 - - 10 - - - -
30/06:00pm 18.3 NNE 8 11 1024.7 - 0.0 - Partly cloudy 10 - - - -
30/05:30pm 18.8 NNE 11 16 1024.5 - 0.0 - - 10 - - - -
30/05:00pm 19.5 NNE 12 19 1024.6 - 0.0 - - 10 - - - -
30/04:30pm 20.0 NNE 12 18 1024.4 - 0.0 - - 10 - - - -
30/04:00pm 20.9 NNE 13 19 1024.3 - 0.0 - - 10 - - - -
30/03:30pm 21.1 NNE 14 19 1024.2 - 0.0 - - 10 - - - -
30/03:00pm 21.4 NE 12 17 1024.5 - 0.0 - - 10 - - - -
30/02:30pm 21.2 NE 11 16 1024.9 - 0.0 - - 10 - - - -
30/02:00pm 21.7 NE 9 12 1025.1 - 0.0 - Partly cloudy 10 - - - -
30/01:30pm 20.8 NNE 12 17 1025.4 - 0.0 - - 10 - - - -
30/01:00pm 21.3 NE 12 17 1025.1 - 0.0 - Partly cloudy 10 - - - -
30/12:30pm 21.2 NNE 12 17 1025.7 - 0.0 - Partly cloudy 10 - - - -
30/12:00pm 21.2 NE 10 13 1025.7 - 0.0 - Partly cloudy 10 - - - -
30/11:30am 21.0 NNE 11 16 1026.5 - 0.0 - Partly cloudy 10 - - - -
30/11:00am 21.8 N 12 17 1027.3 - 0.0 - Partly cloudy 10 - - - -
30/10:30am 21.4 N 12 16 1027.4 - 0.0 - - 10 - - - -
30/10:00am 20.7 NNE 9 12 1027.5 - 0.0 - - 10 - - - -
30/09:30am 18.6 NNE 5 8 1027.9 - 0.0 - - 10 - - - -
30/09:00am 17.1 NW 5 7 1028.4 - 0.0 - Mostly clear 10 - - - -
30/08:30am 15.3 NW 5 7 1028.1 - 0.0 - - 10 - - - -
30/08:00am 14.3 NNW 3 4 1028.2 - 0.0 - - 10 - - - -
30/07:30am 12.4 NW 2 4 1028.3 - 0.0 - - 10 - - - -
30/07:00am 10.5 WNW 1 3 1028.1 - 0.0 - - 10 - - - -
30/06:30am 9.8 NW 2 4 1027.7 - 0.0 - - 10 - - - -
30/06:00am 9.0 WNW 1 4 1027.6 - 0.0 - - 10 - - - -
30/05:30am 8.4 CALM 0 0 1026.9 - 0.0 - - 10 - - - -
30/05:00am 8.0 CALM 0 3 1026.1 - 0.0 - - 10 - - - -
30/04:30am 8.5 CALM 0 0 1025.6 - 0.0 - - 10 - - - -
30/04:00am 9.3 CALM 0 0 1025.8 - 0.0 - Partly cloudy 10 - - - -
30/03:30am 9.5 CALM 0 0 1025.7 - 0.0 - Partly cloudy 10 - - - -
30/03:00am 9.6 CALM 0 0 1025.5 - 0.0 - Mostly cloudy 10 - - - -
30/02:59am 9.6 CALM 0 0 1025.5 - 0.0 - Partly cloudy 10 - - - -
30/02:30am 8.9 CALM 0 0 1025.6 - 0.0 - Partly cloudy 0.3 - - - -
30/02:01am 9.2 CALM 0 0 1025.7 - 0.0 - - 5 - - - -
30/02:00am 9.3 CALM 0 0 1025.7 - 0.0 - - 10 - - - -
30/01:30am 10.2 NW 2 3 1025.6 - 0.0 - - 10 - - - -
30/01:00am 10.6 CALM 0 0 1025.8 - 0.0 - Partly cloudy 10 - - - -
30/12:30am 10.8 CALM 0 0 1026.1 - 0.0 - Partly cloudy 10 - - - -
30/12:00am 11.0 CALM 0 0 1026.3 - 0.0 - Cloudy 10 - - - -
 
Date/Time
EST
Temp
°C
Wind Pressure Rain since
9am
mm
Weather Cloud Vis
km
Sea
Height
m
Swell
Dir  Spd
kts
Gust
kts
hPa Trend Height
m
Period
s
Dir
29/11:30pm 10.6 CALM 0 0 1026.2 - 0.0 - Partly cloudy 10 - - - -
29/11:00pm 11.0 CALM 0 0 1026.3 - 0.0 - Partly cloudy 10 - - - -
29/10:30pm 10.5 CALM 0 0 1026.5 - 0.0 - Partly cloudy 10 - - - -
29/10:00pm 11.3 CALM 0 0 1026.5 - 0.0 - Partly cloudy 10 - - - -
29/09:30pm 10.9 CALM 0 0 1027.0 - 0.0 - Partly cloudy 10 - - - -
29/09:00pm 10.6 CALM 0 0 1026.9 - 0.0 - Partly cloudy 10 - - - -
29/08:30pm 10.4 CALM 0 0 1026.7 - 0.0 - - 10 - - - -
29/08:00pm 11.4 NW 1 3 1026.5 - 0.0 - Partly cloudy 10 - - - -
29/07:30pm 12.3 CALM 0 0 1026.2 - 0.0 - - 10 - - - -
29/07:00pm 13.4 CALM 0 0 1026.3 - 0.0 - - 10 - - - -
29/06:30pm 14.5 N 2 3 1026.1 - 0.0 - Partly cloudy 10 - - - -
29/06:00pm 16.3 NNE 4 5 1025.9 - 0.0 - - 10 - - - -
29/05:30pm 17.9 NE 6 9 1025.3 - 0.0 - - 10 - - - -
29/05:00pm 18.6 NE 6 8 1025.1 - 0.0 - - 10 - - - -
29/04:30pm 18.7 NE 7 9 1025.3 - 0.0 - - 10 - - - -
29/04:00pm 19.0 ENE 7 9 1025.2 - 0.0 - - 10 - - - -
29/03:30pm 18.9 ENE 7 9 1025.0 - 0.0 - - 10 - - - -
29/03:00pm 19.0 ENE 9 11 1024.6 - 0.0 - Mostly clear 10 - - - -
29/02:30pm 20.0 ENE 10 11 1024.6 - 0.0 - - 10 - - - -
29/02:00pm 20.2 ENE 8 10 1024.9 - 0.0 - - 10 - - - -
29/01:30pm 20.0 ENE 8 11 1025.0 - 0.0 - - 10 - - - -
29/01:00pm 20.2 ENE 8 11 1025.1 - 0.0 - - 10 - - - -
29/12:30pm 20.3 E 9 14 1025.0 - 0.0 - - 10 - - - -
29/12:00pm 20.6 ENE 7 10 1025.7 - 0.0 - - 10 - - - -
29/11:30am 19.9 N 3 5 1025.9 - 0.0 - - 10 - - - -
29/11:00am 19.9 NE 3 8 1026.6 - 0.0 - Partly cloudy 10 - - - -
29/10:30am 19.4 NW 4 6 1026.9 - 0.0 - - 10 - - - -
29/10:00am 18.0 WSW 4 5 1027.0 - 0.0 - - 10 - - - -
29/09:30am 16.5 W 4 6 1026.9 - 0.0 - - 10 - - - -
29/09:00am 14.8 WNW 7 9 1027.2 - 0.0 - - 10 - - - -
29/08:30am 13.7 W 6 10 1027.1 - 0.0 - - 10 - - - -
29/08:00am 12.3 W 5 7 1026.9 - 0.0 - - 10 - - - -
29/07:30am 11.1 W 6 9 1026.4 - 0.0 - Partly cloudy 10 - - - -
29/07:00am 10.1 W 4 6 1026.3 - 0.0 - Partly cloudy 10 - - - -
29/06:30am 9.1 W 4 7 1025.8 - 0.0 - - 10 - - - -
29/06:00am 9.0 W 4 7 1025.3 - 0.0 - - 10 - - - -
29/05:30am 8.9 WSW 4 6 1024.6 - 0.0 - - 10 - - - -
29/05:00am 8.8 W 3 4 1024.3 - 0.0 - - 10 - - - -
29/04:30am 9.1 WSW 3 5 1024.1 - 0.0 - - 10 - - - -
29/04:00am 9.3 W 3 5 1023.9 - 0.0 - - 10 - - - -
29/03:30am 9.7 W 5 7 1023.8 - 0.0 - - 10 - - - -
29/03:00am 10.0 W 7 10 1023.7 - 0.0 - - 10 - - - -
29/02:30am 9.6 W 6 10 1023.9 - 0.0 - - 10 - - - -
29/02:00am 7.2 SW 4 5 1023.6 - 0.0 - - 10 - - - -
29/01:30am 9.8 WNW 8 11 1023.7 - 0.0 - - 10 - - - -
29/01:00am 6.8 WNW 2 5 1023.8 - 0.0 - - 10 - - - -
29/12:30am 6.5 CALM 0 3 1023.8 - 0.0 - - 10 - - - -
29/12:04am 6.1 CALM 0 0 1024.0 - 0.0 - - 10 - - - -
29/12:00am 6.2 CALM 0 0 1024.0 - 0.0 - - 10 - - - -
 
Date/Time
EST
Temp
°C
Wind Pressure Rain since
9am
mm
Weather Cloud Vis
km
Sea
Height
m
Swell
Dir  Spd
kts
Gust
kts
hPa Trend Height
m
Period
s
Dir
28/11:46pm 6.2 CALM 0 0 1024.0 - 0.0 - - 5 - - - -
28/11:30pm 6.4 CALM 0 0 1023.8 - 0.0 - - 10 - - - -
28/11:00pm 6.9 NW 1 4 1023.6 - 0.0 - - 10 - - - -
28/10:30pm 7.1 CALM 0 0 1023.6 - 0.0 - - 10 - - - -
28/10:00pm 7.3 CALM 0 2 1023.5 - 0.0 - - 10 - - - -
28/09:30pm 8.1 W 2 4 1023.6 - 0.0 - - 10 - - - -
28/09:00pm 8.5 CALM 0 0 1023.6 - 0.0 - - 10 - - - -
28/08:30pm 8.7 SW 4 4 1023.4 - 0.0 - - 10 - - - -
28/08:00pm 8.7 CALM 0 0 1023.0 - 0.0 - - 10 - - - -
28/07:30pm 9.8 CALM 0 0 1022.7 - 0.0 - - 10 - - - -
28/07:00pm 10.2 SSW 3 5 1022.6 - 0.0 - - 10 - - - -
28/06:30pm 11.7 WNW 4 4 1022.1 - 0.0 - - 10 - - - -
28/06:00pm 13.2 CALM 0 0 1021.4 - 0.0 - - 10 - - - -
28/05:30pm 16.4 ENE 4 6 1021.3 - 0.0 - - 10 - - - -
28/05:00pm 17.8 ENE 6 8 1020.9 - 0.0 - - 10 - - - -
28/04:30pm 18.2 ENE 6 8 1020.8 - 0.0 - - 10 - - - -
28/04:00pm 18.6 ENE 7 9 1020.5 - 0.0 - - 10 - - - -
28/03:30pm 19.1 ENE 7 8 1020.6 - 0.0 - - 10 - - - -
28/03:00pm 19.4 E 7 9 1020.5 - 0.0 - - 10 - - - -
28/02:30pm 19.7 E 9 12 1020.5 - 0.0 - - 10 - - - -
28/02:00pm 19.6 ENE 9 13 1020.4 - 0.0 - - 10 - - - -
28/01:30pm 19.4 ENE 9 12 1020.5 - 0.0 - - 10 - - - -
28/01:00pm 19.9 NE 7 9 1020.9 - 0.0 - - 10 - - - -
28/12:30pm 20.0 NNE 7 9 1021.1 - 0.0 - - 10 - - - -
28/12:00pm 20.2 N 5 8 1021.7 - 0.0 - - 10 - - - -
28/11:30am 19.5 NW 4 8 1022.2 - 0.0 - - 10 - - - -
28/11:00am 18.1 WNW 4 8 1022.5 - 0.0 - - 10 - - - -
28/10:30am 17.7 W 6 8 1022.8 - 0.0 - - 10 - - - -
28/10:00am 16.9 NW 6 9 1023.1 - 0.0 - - 10 - - - -
28/09:30am 15.5 WNW 6 9 1023.3 - 0.0 - - 10 - - - -
28/09:00am 14.3 NW 5 9 1023.5 - 1.0 - - 10 - - - -
28/08:30am 13.3 WNW 4 6 1023.8 - 1.0 - - 10 - - - -
28/08:00am 11.5 WNW 6 10 1023.9 - 1.0 - - 10 - - - -
28/07:30am 10.3 WNW 5 8 1023.7 - 1.0 - - 10 - - - -
28/07:00am 9.5 WNW 8 11 1023.4 - 1.0 - - 10 - - - -
28/06:30am 8.7 WNW 8 11 1023.0 - 1.0 - - 10 - - - -
28/06:00am 8.7 WNW 8 12 1022.8 - 1.0 - - 10 - - - -
28/05:30am 8.6 WNW 4 7 1022.5 - 1.0 - - 10 - - - -
28/05:00am 9.2 WNW 9 11 1022.2 - 1.0 - - 10 - - - -
28/04:30am 8.6 WNW 7 9 1021.9 - 1.0 - - 10 - - - -
28/04:00am 8.6 W 5 6 1021.7 - 1.0 - - 10 - - - -
28/03:30am 8.7 W 3 7 1021.7 - 1.0 - - 10 - - - -

Other Formats:

Comma delimited format used in spreadsheet applications
http://www.bom.gov.au/fwo/IDN60701/IDN60701.94786.axf

JavaScript Object Notation format (JSON) in row-major order
http://www.bom.gov.au/fwo/IDN60701/IDN60701.94786.json